createdAt,value
2023-05-15T00:01:53.013Z,3.10
2023-05-15T00:04:21.879Z,3.40
2023-05-15T00:06:51.331Z,3.20
2023-05-15T00:09:20.527Z,3.30
2023-05-15T00:11:49.607Z,3.30
2023-05-15T00:14:18.490Z,3.20
2023-05-15T00:16:47.413Z,3.40
2023-05-15T00:19:16.695Z,3.50
2023-05-15T00:21:46.202Z,3.30
2023-05-15T00:24:15.084Z,3.80
2023-05-15T00:26:44.324Z,3.70
2023-05-15T00:29:19.568Z,3.50
2023-05-15T00:32:08.472Z,3.40
2023-05-15T00:34:43.626Z,3.20
2023-05-15T00:37:32.485Z,3.10
2023-05-15T00:40:08.139Z,3.50
2023-05-15T00:42:43.467Z,3.20
2023-05-15T00:45:13.194Z,3.50
2023-05-15T00:47:43.590Z,3.50
2023-05-15T00:50:12.715Z,3.40
2023-05-15T00:52:42.631Z,3.40
2023-05-15T00:55:11.519Z,3.60
2023-05-15T00:57:42.528Z,3.50
2023-05-15T01:00:12.612Z,3.70
2023-05-15T01:02:41.498Z,3.50
2023-05-15T01:05:10.567Z,3.40
2023-05-15T01:07:52.628Z,3.30
2023-05-15T01:10:21.879Z,3.90
2023-05-15T01:12:51.882Z,3.70
2023-05-15T01:15:21.200Z,3.70
2023-05-15T01:17:51.105Z,3.50
2023-05-15T01:20:21.303Z,3.60
2023-05-15T01:23:00.662Z,3.60
2023-05-15T01:25:44.678Z,3.50
2023-05-15T01:28:17.796Z,3.60
2023-05-15T01:30:48.131Z,3.70
2023-05-15T01:33:28.501Z,3.60
2023-05-15T01:36:15.088Z,3.60
2023-05-15T01:38:50.587Z,3.80
2023-05-15T01:41:47.275Z,3.70
2023-05-15T01:44:46.998Z,3.50
2023-05-15T01:47:21.519Z,3.80
2023-05-15T01:49:51.210Z,4.30
2023-05-15T01:52:33.020Z,4.40
2023-05-15T01:55:03.314Z,4.20
2023-05-15T01:57:32.441Z,3.60
2023-05-15T02:00:01.839Z,3.80
2023-05-15T02:02:31.069Z,3.80
2023-05-15T02:05:00.646Z,4.20
2023-05-15T02:07:30.132Z,3.90
2023-05-15T02:09:59.658Z,4.20
2023-05-15T02:12:28.827Z,5.30
2023-05-15T02:14:58.217Z,4.20
2023-05-15T02:17:28.860Z,4.30
2023-05-15T02:19:57.903Z,4.20
2023-05-15T02:22:26.777Z,4.10
2023-05-15T02:24:55.665Z,4.00
2023-05-15T02:27:29.599Z,3.90
2023-05-15T02:30:16.907Z,3.70
2023-05-15T02:33:04.898Z,4.20
2023-05-15T02:35:59.384Z,3.60
2023-05-15T02:38:36.105Z,4.30
2023-05-15T02:41:06.330Z,3.70
2023-05-15T02:43:36.507Z,3.60
2023-05-15T02:46:07.357Z,4.20
2023-05-15T02:48:40.073Z,3.80
2023-05-15T02:51:10.501Z,3.80
2023-05-15T02:53:42.636Z,4.30
2023-05-15T02:56:11.569Z,4.00
2023-05-15T02:58:41.125Z,4.40
2023-05-15T03:01:10.077Z,4.40
2023-05-15T03:03:39.049Z,4.00
2023-05-15T03:06:08.032Z,4.60
2023-05-15T03:08:36.867Z,4.00
2023-05-15T03:11:06.284Z,3.70
2023-05-15T03:13:35.205Z,3.70
2023-05-15T03:16:04.317Z,3.60
2023-05-15T03:18:33.214Z,4.00
2023-05-15T03:21:02.106Z,3.80
2023-05-15T03:23:32.163Z,3.60
2023-05-15T03:26:01.527Z,4.20
2023-05-15T03:28:30.619Z,3.90
2023-05-15T03:30:59.827Z,3.30
2023-05-15T03:33:28.849Z,3.90
2023-05-15T03:35:57.642Z,3.60
2023-05-15T03:38:26.596Z,3.10
2023-05-15T03:40:55.497Z,3.00
2023-05-15T03:43:24.287Z,3.50
2023-05-15T03:45:53.073Z,2.60
2023-05-15T03:48:21.980Z,2.90
2023-05-15T03:50:51.261Z,3.60
2023-05-15T03:53:20.145Z,3.90
2023-05-15T03:55:49.049Z,3.00
2023-05-15T03:58:18.265Z,2.90
2023-05-15T04:00:47.212Z,3.40
2023-05-15T04:03:16.352Z,2.90
2023-05-15T04:05:50.553Z,2.80
2023-05-15T04:08:19.553Z,2.90
2023-05-15T04:10:48.427Z,3.10
2023-05-15T04:13:17.604Z,3.50
2023-05-15T04:15:46.834Z,3.20
2023-05-15T04:18:16.090Z,3.40
2023-05-15T04:20:45.017Z,3.40
2023-05-15T04:23:14.016Z,3.50
2023-05-15T04:25:46.593Z,3.50
2023-05-15T04:28:16.102Z,3.30
2023-05-15T04:30:45.022Z,3.40
2023-05-15T04:33:14.053Z,3.00
2023-05-15T04:35:43.394Z,3.10
2023-05-15T04:38:12.354Z,3.40
2023-05-15T04:40:41.307Z,3.10
2023-05-15T04:43:10.254Z,3.40
2023-05-15T04:45:39.319Z,3.30
2023-05-15T04:48:08.395Z,3.60
2023-05-15T04:50:37.486Z,3.00
2023-05-15T04:53:06.638Z,3.30
2023-05-15T04:55:35.781Z,3.30
2023-05-15T04:58:04.950Z,3.20
2023-05-15T05:00:34.126Z,3.50
2023-05-15T05:03:03.121Z,3.20
2023-05-15T05:05:32.174Z,3.10
2023-05-15T05:08:01.201Z,3.60
2023-05-15T05:10:30.156Z,4.00
2023-05-15T05:12:59.089Z,3.30
2023-05-15T05:15:28.191Z,3.90
2023-05-15T05:17:57.299Z,3.80
2023-05-15T05:20:26.540Z,4.00
2023-05-15T05:22:55.833Z,4.40
2023-05-15T05:25:25.073Z,4.00
2023-05-15T05:27:54.210Z,4.10
2023-05-15T05:30:23.290Z,4.50
2023-05-15T05:32:52.296Z,4.00
2023-05-15T05:35:21.397Z,4.60
2023-05-15T05:37:50.587Z,4.90
2023-05-15T05:40:19.890Z,5.20
2023-05-15T05:42:48.835Z,5.20
2023-05-15T05:45:18.105Z,5.20
2023-05-15T05:47:47.179Z,5.40
2023-05-15T05:50:16.562Z,5.20
2023-05-15T05:52:45.507Z,5.40
2023-05-15T05:55:14.798Z,5.90
2023-05-15T05:57:43.782Z,5.80
2023-05-15T06:00:13.515Z,5.50
2023-05-15T06:02:42.962Z,5.40
2023-05-15T06:05:11.998Z,5.60
2023-05-15T06:07:41.492Z,5.10
2023-05-15T06:10:10.708Z,5.70
2023-05-15T06:12:39.623Z,4.90
2023-05-15T06:15:08.865Z,4.90
2023-05-15T06:17:38.454Z,5.00
2023-05-15T06:20:09.965Z,5.70
2023-05-15T06:22:39.113Z,6.20
2023-05-15T06:25:11.449Z,5.30
2023-05-15T06:27:43.622Z,4.90
2023-05-15T06:30:13.190Z,4.50
2023-05-15T06:32:42.344Z,4.60
2023-05-15T06:35:11.440Z,5.40
2023-05-15T06:37:40.596Z,5.00
2023-05-15T06:40:10.858Z,5.90
2023-05-15T06:42:39.829Z,5.50
2023-05-15T06:45:09.560Z,5.70
2023-05-15T06:47:38.519Z,5.40
2023-05-15T06:50:08.244Z,4.90
2023-05-15T06:52:37.162Z,4.40
2023-05-15T06:55:06.329Z,5.90
2023-05-15T06:57:35.315Z,5.40
2023-05-15T07:00:05.866Z,5.00
2023-05-15T07:02:34.833Z,4.70
2023-05-15T07:05:04.053Z,5.00
2023-05-15T07:07:33.161Z,4.90
2023-05-15T07:10:02.085Z,5.50
2023-05-15T07:12:31.260Z,4.80
2023-05-15T07:15:00.241Z,4.60
2023-05-15T07:17:29.268Z,4.50
2023-05-15T07:19:58.263Z,5.80
2023-05-15T07:22:28.653Z,6.10
2023-05-15T07:24:57.620Z,4.60
2023-05-15T07:27:26.888Z,5.10
2023-05-15T07:29:55.862Z,5.30
2023-05-15T07:32:24.870Z,5.90
2023-05-15T07:34:53.720Z,4.90
2023-05-15T07:37:23.518Z,4.60
2023-05-15T07:39:52.662Z,4.90
2023-05-15T07:42:21.579Z,4.40
2023-05-15T07:44:50.974Z,4.60
2023-05-15T07:47:19.916Z,5.30
2023-05-15T07:49:49.175Z,10.10
2023-05-15T07:52:18.029Z,5.00
2023-05-15T07:54:46.932Z,5.20
2023-05-15T07:57:15.774Z,4.80
2023-05-15T07:59:44.723Z,4.60
2023-05-15T08:02:13.859Z,4.60
2023-05-15T08:04:43.008Z,5.00
2023-05-15T08:07:13.858Z,5.00
2023-05-15T08:09:42.821Z,5.10
2023-05-15T08:12:18.129Z,5.10
2023-05-15T08:14:51.490Z,5.30
2023-05-15T08:17:21.240Z,5.20
2023-05-15T08:19:50.497Z,5.20
2023-05-15T08:22:19.898Z,4.90
2023-05-15T08:24:49.295Z,4.70
2023-05-15T08:27:18.137Z,5.10
2023-05-15T08:29:47.700Z,4.80
2023-05-15T08:32:16.585Z,4.90
2023-05-15T08:34:45.472Z,5.60
2023-05-15T08:37:14.487Z,5.50
2023-05-15T08:39:43.781Z,5.60
2023-05-15T08:42:20.567Z,5.30
2023-05-15T08:44:50.277Z,5.40
2023-05-15T08:47:20.200Z,5.60
2023-05-15T08:50:15.595Z,5.70
2023-05-15T08:52:47.257Z,5.90
2023-05-15T08:55:17.424Z,6.30
2023-05-15T08:57:48.119Z,6.40
2023-05-15T09:00:18.317Z,6.10
2023-05-15T09:02:47.278Z,6.30
2023-05-15T09:05:16.509Z,6.40
2023-05-15T09:07:46.457Z,5.90
2023-05-15T09:10:16.144Z,6.30
2023-05-15T09:12:45.237Z,6.10
2023-05-15T09:15:22.182Z,6.20
2023-05-15T09:17:51.954Z,7.20
2023-05-15T09:20:35.104Z,6.40
2023-05-15T09:23:05.367Z,6.40
2023-05-15T09:25:40.578Z,6.10
2023-05-15T09:28:11.171Z,5.80
2023-05-15T09:30:43.111Z,5.90
2023-05-15T09:33:12.267Z,5.80
2023-05-15T09:35:41.224Z,5.90
2023-05-15T09:38:12.760Z,5.80
2023-05-15T09:40:41.864Z,6.60
2023-05-15T09:43:14.441Z,6.70
2023-05-15T09:45:43.571Z,6.60
2023-05-15T09:48:20.274Z,6.50
2023-05-15T09:50:49.527Z,6.70
2023-05-15T09:53:21.485Z,6.40
2023-05-15T09:55:51.115Z,6.20
2023-05-15T09:58:20.014Z,6.60
2023-05-15T10:00:49.678Z,6.70
2023-05-15T10:03:22.625Z,6.30
2023-05-15T10:05:59.643Z,6.60
2023-05-15T10:08:29.270Z,6.40
2023-05-15T10:11:00.774Z,5.70
2023-05-15T10:13:32.200Z,6.20
2023-05-15T10:16:03.655Z,6.10
2023-05-15T10:18:34.070Z,6.10
2023-05-15T10:21:04.581Z,5.70
2023-05-15T10:23:36.731Z,6.60
2023-05-15T10:26:14.580Z,6.50
2023-05-15T10:31:14.485Z,6.30
2023-05-15T10:33:44.165Z,5.90
2023-05-15T10:36:14.703Z,6.20
2023-05-15T10:38:44.315Z,6.40
2023-05-15T10:41:17.632Z,6.80
2023-05-15T10:43:47.743Z,5.90
2023-05-15T10:46:16.926Z,7.10
2023-05-15T10:48:47.969Z,7.00
2023-05-15T10:51:18.308Z,6.80
2023-05-15T10:53:47.386Z,6.00
2023-05-15T10:56:19.117Z,5.90
2023-05-15T10:58:49.327Z,6.60
2023-05-15T11:01:28.811Z,5.80
2023-05-15T11:04:09.420Z,6.00
2023-05-15T11:06:40.693Z,5.50
2023-05-15T11:09:22.454Z,6.10
2023-05-15T11:11:51.401Z,5.90
2023-05-15T11:14:20.413Z,5.30
2023-05-15T11:16:55.611Z,5.70
2023-05-15T11:19:28.671Z,4.80
2023-05-15T11:22:04.127Z,5.40
2023-05-15T11:24:47.535Z,5.20
2023-05-15T11:27:24.285Z,5.90
2023-05-15T11:30:13.384Z,5.10
2023-05-15T11:32:42.492Z,4.90
2023-05-15T11:35:32.734Z,5.10
2023-05-15T11:38:13.951Z,4.40
2023-05-15T11:40:46.765Z,4.50
2023-05-15T11:43:25.044Z,4.40
2023-05-15T11:45:56.281Z,4.40
2023-05-15T11:48:31.714Z,4.30
2023-05-15T11:51:04.484Z,4.30
2023-05-15T11:53:33.794Z,4.90
2023-05-15T11:56:03.192Z,4.00
2023-05-15T11:58:32.285Z,4.40
2023-05-15T12:01:02.414Z,4.20
2023-05-15T12:03:35.357Z,4.10
2023-05-15T12:06:04.792Z,4.30
2023-05-15T12:08:36.175Z,4.00
2023-05-15T12:11:06.174Z,4.50
2023-05-15T12:13:35.425Z,3.90
2023-05-15T12:16:04.929Z,4.40
2023-05-15T12:18:34.434Z,4.10
2023-05-15T12:21:05.622Z,5.10
2023-05-15T12:23:34.541Z,5.00
2023-05-15T12:26:03.907Z,5.00
2023-05-15T12:28:36.074Z,4.80
2023-05-15T12:31:05.453Z,4.50
2023-05-15T12:33:34.477Z,4.90
2023-05-15T12:36:03.554Z,4.80
2023-05-15T12:38:35.057Z,5.10
2023-05-15T12:41:04.136Z,4.60
2023-05-15T12:43:33.436Z,4.50
2023-05-15T12:46:02.373Z,5.70
2023-05-15T12:48:32.823Z,4.90
2023-05-15T12:51:07.204Z,4.50
2023-05-15T12:53:36.529Z,5.30
2023-05-15T12:56:05.856Z,4.60
2023-05-15T12:58:35.019Z,4.60
2023-05-15T13:01:04.285Z,4.40
2023-05-15T13:03:34.320Z,5.30
2023-05-15T13:06:03.781Z,5.10
2023-05-15T13:08:33.066Z,4.80
2023-05-15T13:11:02.232Z,4.60
2023-05-15T13:13:50.519Z,4.30
2023-05-15T13:16:20.498Z,4.60
2023-05-15T13:18:50.689Z,4.90
2023-05-15T13:21:20.082Z,4.80
2023-05-15T13:23:49.062Z,4.50
2023-05-15T13:26:18.268Z,4.30
2023-05-15T13:28:47.195Z,4.60
2023-05-15T13:31:17.255Z,4.30
2023-05-15T13:33:46.357Z,6.00
2023-05-15T13:36:15.162Z,3.90
2023-05-15T13:38:44.162Z,4.10
2023-05-15T13:41:13.147Z,4.00
2023-05-15T13:43:42.060Z,4.00
2023-05-15T13:46:10.929Z,4.20
2023-05-15T13:48:39.774Z,4.70
2023-05-15T13:51:08.711Z,4.50
2023-05-15T13:53:37.803Z,4.40
2023-05-15T13:56:06.770Z,4.40
2023-05-15T13:58:36.597Z,4.30
2023-05-15T14:01:07.472Z,3.80
2023-05-15T14:03:36.735Z,3.80
2023-05-15T14:06:06.026Z,3.80
2023-05-15T14:08:35.059Z,2.90
2023-05-15T14:11:03.959Z,2.70
2023-05-15T14:13:34.163Z,2.60
2023-05-15T14:16:03.252Z,2.80
2023-05-15T14:18:32.334Z,2.50
2023-05-15T14:21:01.291Z,2.40
2023-05-15T14:23:30.440Z,2.60
2023-05-15T14:25:59.330Z,2.60
2023-05-15T14:28:28.325Z,2.60
2023-05-15T14:30:57.178Z,2.40
2023-05-15T14:35:57.654Z,3.00
2023-05-15T14:38:26.884Z,2.50
2023-05-15T14:40:55.708Z,2.20
2023-05-15T14:43:27.308Z,2.10
2023-05-15T14:45:56.239Z,2.10
2023-05-15T14:48:25.069Z,2.20
2023-05-15T14:50:53.981Z,2.30
2023-05-15T14:53:22.868Z,2.30
2023-05-15T14:55:51.887Z,2.40
2023-05-15T14:58:21.184Z,2.10
2023-05-15T15:00:50.026Z,2.60
2023-05-15T15:03:22.347Z,2.20
2023-05-15T15:05:52.138Z,2.20
2023-05-15T15:08:21.435Z,2.00
2023-05-15T15:10:50.428Z,2.30
2023-05-15T15:13:19.320Z,1.90
2023-05-15T15:15:48.575Z,1.90
2023-05-15T15:18:17.682Z,2.10
2023-05-15T15:20:46.884Z,1.90
2023-05-15T15:23:15.933Z,2.30
2023-05-15T15:25:44.762Z,2.20
2023-05-15T15:28:13.569Z,2.30
2023-05-15T15:30:42.352Z,2.40
2023-05-15T15:33:11.322Z,1.90
2023-05-15T15:35:40.418Z,2.20
2023-05-15T15:38:11.571Z,2.50
2023-05-15T15:40:41.032Z,2.80
2023-05-15T15:43:10.006Z,2.70
2023-05-15T15:45:38.835Z,3.00
2023-05-15T15:48:07.743Z,2.90
2023-05-15T15:50:36.808Z,2.60
2023-05-15T15:53:05.681Z,2.60
2023-05-15T15:55:34.840Z,2.50
2023-05-15T15:58:04.485Z,2.70
2023-05-15T16:00:33.666Z,2.80
2023-05-15T16:03:02.717Z,2.70
2023-05-15T16:05:31.606Z,2.70
2023-05-15T16:08:00.770Z,3.00
2023-05-15T16:10:29.802Z,3.50
2023-05-15T16:12:58.863Z,3.40
2023-05-15T16:15:27.676Z,2.90
2023-05-15T16:17:56.910Z,3.40
2023-05-15T16:20:26.225Z,3.20
2023-05-15T16:22:55.254Z,2.80
2023-05-15T16:25:24.109Z,2.80
2023-05-15T16:27:53.080Z,2.90
2023-05-15T16:30:23.374Z,3.20
2023-05-15T16:35:22.379Z,2.10
2023-05-15T16:37:51.452Z,2.50
2023-05-15T16:40:20.388Z,2.30
2023-05-15T16:42:49.341Z,2.40
2023-05-15T16:45:18.150Z,2.10
2023-05-15T16:47:47.415Z,2.70
2023-05-15T16:50:16.603Z,2.20
2023-05-15T16:52:47.712Z,2.80
2023-05-15T16:55:18.506Z,2.20
2023-05-15T16:57:47.622Z,2.40
2023-05-15T17:00:17.161Z,2.50
2023-05-15T17:02:46.742Z,2.70
2023-05-15T17:05:16.229Z,2.50
2023-05-15T17:07:45.358Z,2.10
2023-05-15T17:10:14.260Z,2.20
2023-05-15T17:12:43.434Z,2.40
2023-05-15T17:15:13.774Z,2.60
2023-05-15T17:17:42.733Z,2.40
2023-05-15T17:20:12.411Z,5.50
2023-05-15T17:22:41.628Z,2.80
2023-05-15T17:25:11.275Z,3.00
2023-05-15T17:27:41.603Z,3.30
2023-05-15T17:30:11.954Z,2.80
2023-05-15T17:32:41.021Z,3.10
2023-05-15T17:35:10.527Z,3.00
2023-05-15T17:37:40.130Z,3.50
2023-05-15T17:40:10.155Z,3.80
2023-05-15T17:42:39.732Z,4.40
2023-05-15T17:45:09.378Z,4.30
2023-05-15T17:47:38.398Z,3.80
2023-05-15T17:50:10.170Z,3.50
2023-05-15T17:52:39.095Z,3.70
2023-05-15T17:55:09.045Z,3.90
2023-05-15T17:57:37.866Z,3.90
2023-05-15T18:00:08.280Z,4.10
2023-05-15T18:02:37.269Z,4.30
2023-05-15T18:05:07.102Z,8.30
2023-05-15T18:07:36.548Z,4.90
2023-05-15T18:10:06.805Z,4.50
2023-05-15T18:12:36.063Z,4.00
2023-05-15T18:15:06.085Z,4.20
2023-05-15T18:17:35.061Z,4.30
2023-05-15T18:20:05.752Z,4.10
2023-05-15T18:22:34.774Z,4.50
2023-05-15T18:25:04.768Z,4.50
2023-05-15T18:27:33.788Z,4.00
2023-05-15T18:30:02.744Z,3.70
2023-05-15T18:32:31.705Z,4.30
2023-05-15T18:35:00.791Z,4.40
2023-05-15T18:37:29.776Z,3.80
2023-05-15T18:39:59.261Z,4.20
2023-05-15T18:42:29.333Z,4.60
2023-05-15T18:44:58.356Z,4.30
2023-05-15T18:47:27.730Z,4.90
2023-05-15T18:49:57.140Z,4.00
2023-05-15T18:52:27.063Z,3.80
2023-05-15T18:54:57.662Z,3.80
2023-05-15T18:57:26.545Z,4.00
2023-05-15T18:59:55.431Z,3.60
2023-05-15T19:02:26.093Z,3.60
2023-05-15T19:04:55.484Z,3.40
2023-05-15T19:07:24.885Z,4.00
2023-05-15T19:09:54.165Z,3.80
2023-05-15T19:12:24.045Z,3.50
2023-05-15T19:14:53.497Z,3.50
2023-05-15T19:17:24.440Z,3.20
2023-05-15T19:19:54.517Z,3.10
2023-05-15T19:22:23.407Z,7.60
2023-05-15T19:24:52.369Z,4.40
2023-05-15T19:27:21.476Z,4.00
2023-05-15T19:29:50.594Z,4.00
2023-05-15T19:32:20.294Z,3.90
2023-05-15T19:34:49.377Z,3.50
2023-05-15T19:37:18.974Z,3.10
2023-05-15T19:39:47.933Z,3.20
2023-05-15T19:42:17.656Z,3.30
2023-05-15T19:44:46.494Z,3.30
2023-05-15T19:47:15.543Z,3.30
2023-05-15T19:49:44.489Z,3.50
2023-05-15T19:52:13.401Z,3.40
2023-05-15T19:54:42.373Z,3.50
2023-05-15T19:57:11.599Z,3.80
2023-05-15T19:59:40.375Z,3.00
2023-05-15T20:02:12.989Z,3.90
2023-05-15T20:04:41.961Z,3.60
2023-05-15T20:07:10.772Z,3.80
2023-05-15T20:09:39.613Z,3.80
2023-05-15T20:12:08.534Z,3.20
2023-05-15T20:14:37.878Z,3.20
2023-05-15T20:17:07.144Z,3.50
2023-05-15T20:19:36.130Z,3.40
2023-05-15T20:22:08.040Z,3.50
2023-05-15T20:24:38.683Z,3.00
2023-05-15T20:27:08.025Z,3.00
2023-05-15T20:29:37.549Z,3.40
2023-05-15T20:32:07.063Z,2.90
2023-05-15T20:34:36.960Z,3.40
2023-05-15T20:37:09.782Z,3.30
2023-05-15T20:39:38.766Z,3.30
2023-05-15T20:42:07.808Z,2.50
2023-05-15T20:44:39.186Z,3.30
2023-05-15T20:47:08.074Z,3.00
2023-05-15T20:49:36.959Z,3.20
2023-05-15T20:52:06.204Z,3.60
2023-05-15T20:54:35.255Z,3.70
2023-05-15T20:57:05.299Z,3.20
2023-05-15T20:59:34.263Z,3.00
2023-05-15T21:02:03.066Z,3.10
2023-05-15T21:04:31.915Z,3.20
2023-05-15T21:07:01.043Z,3.20
2023-05-15T21:09:30.102Z,3.70
2023-05-15T21:12:00.025Z,3.90
2023-05-15T21:14:29.151Z,3.70
2023-05-15T21:16:58.167Z,3.60
2023-05-15T21:19:27.242Z,3.50
2023-05-15T21:21:56.129Z,3.70
2023-05-15T21:24:24.964Z,3.80
2023-05-15T21:26:53.857Z,3.30
2023-05-15T21:29:22.788Z,4.10
2023-05-15T21:31:51.715Z,3.50
2023-05-15T21:34:22.121Z,3.90
2023-05-15T21:36:53.165Z,4.20
2023-05-15T21:39:22.162Z,4.00
2023-05-15T21:41:51.561Z,3.90
2023-05-15T21:44:21.478Z,3.90
2023-05-15T21:46:51.086Z,4.20
2023-05-15T21:49:20.079Z,4.30
2023-05-15T21:51:48.967Z,4.60
2023-05-15T21:54:17.776Z,4.80
2023-05-15T21:56:46.610Z,4.90
2023-05-15T21:59:15.640Z,4.70
2023-05-15T22:01:44.529Z,5.00
2023-05-15T22:04:13.660Z,4.00
2023-05-15T22:06:43.670Z,5.30
2023-05-15T22:09:12.639Z,4.90
2023-05-15T22:11:41.462Z,5.20
2023-05-15T22:14:10.442Z,5.30
2023-05-15T22:16:39.493Z,5.40
2023-05-15T22:19:18.448Z,5.40
2023-05-15T22:21:58.030Z,4.80
2023-05-15T22:24:27.707Z,5.10
2023-05-15T22:26:56.688Z,6.50
2023-05-15T22:29:25.686Z,5.30
2023-05-15T22:31:56.181Z,5.90
2023-05-15T22:34:28.855Z,5.50
2023-05-15T22:36:57.893Z,5.50
2023-05-15T22:39:26.891Z,5.30
2023-05-15T22:41:55.979Z,5.60
2023-05-15T22:44:24.999Z,5.20
2023-05-15T22:46:54.502Z,5.30
2023-05-15T22:49:25.565Z,6.10
2023-05-15T22:51:55.948Z,5.60
2023-05-15T22:54:25.082Z,6.10
2023-05-15T22:56:54.652Z,5.90
2023-05-15T22:59:23.544Z,4.90
2023-05-15T23:01:52.838Z,4.30
2023-05-15T23:04:22.134Z,4.90
2023-05-15T23:06:51.463Z,4.20
2023-05-15T23:09:20.438Z,4.70
2023-05-15T23:11:49.434Z,4.50
2023-05-15T23:14:18.432Z,5.70
2023-05-15T23:16:47.514Z,4.80
2023-05-15T23:19:16.878Z,5.00
2023-05-15T23:21:46.738Z,5.20
2023-05-15T23:24:16.265Z,3.30
2023-05-15T23:26:47.292Z,5.40
2023-05-15T23:29:16.797Z,5.60
2023-05-15T23:31:46.214Z,5.60
2023-05-15T23:34:15.186Z,5.40
2023-05-15T23:36:44.294Z,5.20
2023-05-15T23:39:13.184Z,5.50
2023-05-15T23:41:42.270Z,5.30
2023-05-15T23:44:11.240Z,5.30
2023-05-15T23:46:40.424Z,6.40
2023-05-15T23:49:09.486Z,5.50
2023-05-15T23:51:38.457Z,4.30
2023-05-15T23:54:07.654Z,6.20
2023-05-15T23:56:36.605Z,5.60
2023-05-15T23:59:05.434Z,5.80
